createdAt,value
2019-01-11T00:03:57.951Z,101604.70
2019-01-11T00:06:23.862Z,101606.80
2019-01-11T00:08:49.748Z,101604.76
2019-01-11T00:11:15.615Z,101603.17
2019-01-11T00:13:41.531Z,101600.94
2019-01-11T00:16:07.438Z,101595.86
2019-01-11T00:18:33.307Z,101593.67
2019-01-11T00:20:59.219Z,101601.33
2019-01-11T00:23:25.231Z,101596.22
2019-01-11T00:25:51.178Z,101583.31
2019-01-11T00:28:17.025Z,101582.41
2019-01-11T00:30:42.931Z,101581.49
2019-01-11T00:33:08.810Z,101574.52
2019-01-11T00:35:34.725Z,101573.89
2019-01-11T00:38:00.584Z,101568.88
2019-01-11T00:40:26.495Z,101565.50
2019-01-11T00:42:52.357Z,101563.55
2019-01-11T00:45:18.272Z,101560.31
2019-01-11T00:47:44.157Z,101554.00
2019-01-11T00:50:10.069Z,101559.98
2019-01-11T00:52:36.079Z,101555.60
2019-01-11T00:58:03.148Z,101554.03
2019-01-11T01:00:29.126Z,101551.38
2019-01-11T01:02:55.023Z,101544.53
2019-01-11T01:05:20.998Z,101542.89
2019-01-11T01:07:47.004Z,101541.19
2019-01-11T01:10:12.910Z,101539.54
2019-01-11T01:12:38.777Z,101533.92
2019-01-11T01:15:46.318Z,101537.75
2019-01-11T01:18:12.255Z,101527.89
2019-01-11T01:20:38.138Z,101527.33
2019-01-11T01:23:04.094Z,101523.81
2019-01-11T01:25:29.944Z,101522.81
2019-01-11T01:27:55.815Z,101521.00
2019-01-11T01:30:21.720Z,101522.81
2019-01-11T01:32:47.586Z,101521.59
2019-01-11T01:35:13.498Z,101515.13
2019-01-11T01:37:39.424Z,101514.66
2019-01-11T01:40:46.951Z,101517.67
2019-01-11T01:43:12.865Z,101512.31
2019-01-11T01:45:38.764Z,101512.05
2019-01-11T01:48:04.629Z,101514.06
2019-01-11T01:50:30.534Z,101511.47
2019-01-11T01:52:56.414Z,101508.39
2019-01-11T01:55:22.271Z,101506.48
2019-01-11T02:00:21.860Z,101508.17
2019-01-11T02:02:47.732Z,101502.95
2019-01-11T02:08:01.043Z,101487.29
2019-01-11T02:10:26.897Z,101483.35
2019-01-11T02:12:52.823Z,101484.02
2019-01-11T02:15:18.713Z,101482.16
2019-01-11T02:17:44.608Z,101477.19
2019-01-11T02:20:52.176Z,101478.42
2019-01-11T02:23:18.240Z,101473.63
2019-01-11T02:25:46.230Z,101478.77
2019-01-11T02:28:11.954Z,101465.70
2019-01-11T02:30:37.854Z,101456.12
2019-01-11T02:33:03.765Z,101455.03
2019-01-11T02:35:29.641Z,101456.50
2019-01-11T02:37:55.661Z,101459.47
2019-01-11T02:40:21.529Z,101456.37
2019-01-11T02:42:47.426Z,101452.04
2019-01-11T02:45:54.964Z,101460.20
2019-01-11T02:48:20.840Z,101457.14
2019-01-11T02:51:06.596Z,101452.48
2019-01-11T02:56:33.530Z,101439.83
2019-01-11T02:58:59.424Z,101441.03
2019-01-11T03:01:25.295Z,101449.91
2019-01-11T03:03:51.200Z,101438.72
2019-01-11T03:06:17.068Z,101426.13
2019-01-11T03:08:42.968Z,101426.22
2019-01-11T03:11:08.832Z,101428.44
2019-01-11T03:13:34.737Z,101416.90
2019-01-11T03:16:00.633Z,101425.53
2019-01-11T03:18:26.634Z,101426.36
2019-01-11T03:20:52.501Z,101413.80
2019-01-11T03:23:18.445Z,101413.84
2019-01-11T03:25:44.308Z,101405.98
2019-01-11T03:28:10.206Z,101399.55
2019-01-11T03:30:36.075Z,101398.95
2019-01-11T03:33:01.945Z,101395.34
2019-01-11T03:35:27.844Z,101392.80
2019-01-11T03:37:53.699Z,101387.57
2019-01-11T03:41:01.232Z,101380.88
2019-01-11T03:43:27.133Z,101376.14
2019-01-11T03:45:53.042Z,101365.78
2019-01-11T03:48:19.017Z,101362.87
2019-01-11T03:50:44.910Z,101366.91
2019-01-11T03:53:10.782Z,101358.48
2019-01-11T03:55:36.691Z,101354.83
2019-01-11T03:58:22.568Z,101350.75
2019-01-11T04:00:48.531Z,101348.26
2019-01-11T04:03:14.403Z,101346.91
2019-01-11T04:05:40.275Z,101325.41
2019-01-11T04:08:06.192Z,101327.22
2019-01-11T04:10:32.051Z,101324.96
2019-01-11T04:12:57.970Z,101318.55
2019-01-11T04:15:23.845Z,101312.98
2019-01-11T04:18:09.621Z,101314.16
2019-01-11T04:20:35.524Z,101314.16
2019-01-11T04:23:01.427Z,101309.16
2019-01-11T04:25:27.456Z,101314.72
2019-01-11T04:30:40.752Z,101307.67
2019-01-11T04:33:06.658Z,101304.58
2019-01-11T04:35:32.569Z,101300.79
2019-01-11T04:38:18.431Z,101291.89
2019-01-11T04:40:44.317Z,101300.36
2019-01-11T04:43:10.232Z,101292.59
2019-01-11T04:45:36.156Z,101282.66
2019-01-11T04:48:02.018Z,101280.13
2019-01-11T04:50:27.912Z,101269.31
2019-01-11T04:52:53.947Z,101277.03
2019-01-11T04:58:07.237Z,101261.95
2019-01-11T05:00:33.095Z,101270.94
2019-01-11T05:02:58.998Z,101266.80
2019-01-11T05:05:24.873Z,101260.52
2019-01-11T05:07:50.780Z,101268.09
2019-01-11T05:10:16.743Z,101268.77
2019-01-11T05:12:42.661Z,101271.56
2019-01-11T05:15:08.527Z,101273.70
2019-01-11T05:17:34.461Z,101271.94
2019-01-11T05:20:00.392Z,101262.48
2019-01-11T05:22:26.337Z,101259.98
2019-01-11T05:27:30.027Z,101251.56
2019-01-11T05:29:55.903Z,101252.62
2019-01-11T05:32:21.797Z,101246.06
2019-01-11T05:34:47.769Z,101243.69
2019-01-11T05:37:13.659Z,101237.86
2019-01-11T05:39:39.578Z,101239.23
2019-01-11T05:42:05.545Z,101246.58
2019-01-11T05:44:31.438Z,101240.06
2019-01-11T05:46:57.304Z,101241.21
2019-01-11T05:49:23.212Z,101240.52
2019-01-11T05:51:49.070Z,101234.81
2019-01-11T05:57:08.480Z,101226.26
2019-01-11T05:59:34.446Z,101230.17
2019-01-11T06:02:00.333Z,101234.75
2019-01-11T06:04:46.067Z,101225.89
2019-01-11T06:07:31.877Z,101220.12
2019-01-11T06:09:57.772Z,101227.50
2019-01-11T06:12:23.799Z,101223.30
2019-01-11T06:14:49.699Z,101226.78
2019-01-11T06:17:15.575Z,101226.59
2019-01-11T06:19:41.481Z,101218.05
2019-01-11T06:22:07.395Z,101208.23
2019-01-11T06:24:33.258Z,101219.20
2019-01-11T06:26:59.156Z,101211.14
2019-01-11T06:29:25.023Z,101211.47
2019-01-11T06:31:51.134Z,101213.81
2019-01-11T06:34:17.013Z,101220.95
2019-01-11T06:36:42.903Z,101213.67
2019-01-11T06:39:08.924Z,101211.61
2019-01-11T06:41:54.645Z,101207.18
2019-01-11T06:44:20.575Z,101201.24
2019-01-11T06:46:46.666Z,101195.16
2019-01-11T06:49:12.558Z,101195.16
2019-01-11T06:51:38.435Z,101192.19
2019-01-11T06:54:04.352Z,101188.14
2019-01-11T06:56:30.225Z,101192.58
2019-01-11T06:58:56.148Z,101197.80
2019-01-11T07:01:22.003Z,101196.81
2019-01-11T07:03:47.914Z,101196.05
2019-01-11T07:06:13.789Z,101197.31
2019-01-11T07:08:39.759Z,101193.36
2019-01-11T07:11:05.651Z,101199.16
2019-01-11T07:13:31.534Z,101194.81
2019-01-11T07:15:57.542Z,101191.30
2019-01-11T07:18:23.412Z,101193.78
2019-01-11T07:20:49.319Z,101193.36
2019-01-11T07:23:15.188Z,101186.13
2019-01-11T07:25:41.137Z,101182.25
2019-01-11T07:28:13.536Z,101185.68
2019-01-11T07:38:23.988Z,101191.28
2019-01-11T07:40:49.866Z,101181.82
2019-01-11T07:43:15.773Z,101167.97
2019-01-11T07:45:41.638Z,101180.83
2019-01-11T07:48:07.534Z,101183.04
2019-01-11T07:50:33.415Z,101169.69
2019-01-11T07:52:59.315Z,101169.70
2019-01-11T07:55:25.205Z,101172.27
2019-01-11T07:57:51.299Z,101171.00
2019-01-11T08:00:17.317Z,101165.81
2019-01-11T08:02:43.237Z,101165.44
2019-01-11T08:05:09.097Z,101167.11
2019-01-11T08:07:34.997Z,101165.80
2019-01-11T08:13:21.888Z,101181.84
2019-01-11T08:15:47.803Z,101187.38
2019-01-11T08:18:13.667Z,101180.11
2019-01-11T08:20:39.578Z,101182.37
2019-01-11T08:23:05.482Z,101177.11
2019-01-11T08:25:31.428Z,101180.13
2019-01-11T08:27:57.304Z,101182.28
2019-01-11T08:30:23.217Z,101184.97
2019-01-11T08:32:49.124Z,101182.39
2019-01-11T08:38:00.650Z,101180.20
2019-01-11T08:40:26.556Z,101181.09
2019-01-11T08:42:52.439Z,101174.58
2019-01-11T08:45:18.360Z,101174.56
2019-01-11T08:47:44.230Z,101170.64
2019-01-11T08:50:30.022Z,101167.62
2019-01-11T08:58:15.850Z,101159.82
2019-01-11T09:03:19.570Z,101162.00
2019-01-11T09:05:45.478Z,101157.64
2019-01-11T09:08:11.358Z,101157.23
2019-01-11T09:13:10.748Z,101147.25
2019-01-11T09:15:36.644Z,101152.01
2019-01-11T09:21:11.366Z,101151.14
2019-01-11T09:23:37.844Z,101154.59
2019-01-11T09:26:03.911Z,101155.04
2019-01-11T09:28:29.783Z,101149.86
2019-01-11T09:30:55.644Z,101148.91
2019-01-11T09:33:21.599Z,101143.34
2019-01-11T09:35:47.603Z,101135.45
2019-01-11T09:40:47.487Z,101134.12
2019-01-11T09:43:13.371Z,101139.34
2019-01-11T09:45:39.267Z,101140.25
2019-01-11T09:48:05.175Z,101134.63
2019-01-11T09:50:31.080Z,101125.91
2019-01-11T09:52:56.951Z,101125.98
2019-01-11T09:55:22.859Z,101124.19
2019-01-11T09:57:48.732Z,101106.44
2019-01-11T10:00:59.268Z,101116.34
2019-01-11T10:03:24.084Z,101101.12
2019-01-11T10:05:49.984Z,101102.00
2019-01-11T10:08:15.864Z,101116.39
2019-01-11T10:11:01.789Z,101102.45
2019-01-11T10:13:27.699Z,101110.27
2019-01-11T10:15:53.543Z,101099.81
2019-01-11T10:18:19.420Z,101101.17
2019-01-11T10:23:19.073Z,101099.88
2019-01-11T10:25:45.116Z,101104.23
2019-01-11T10:28:10.988Z,101079.81
2019-01-11T10:30:36.996Z,101085.02
2019-01-11T10:33:03.014Z,101087.27
2019-01-11T10:35:28.923Z,101078.05
2019-01-11T10:37:54.901Z,101078.58
2019-01-11T10:40:20.806Z,101074.22
2019-01-11T10:42:46.823Z,101069.73
2019-01-11T10:48:26.620Z,101065.48
2019-01-11T10:50:52.524Z,101064.73
2019-01-11T10:53:38.374Z,101058.58
2019-01-11T10:56:04.268Z,101046.69
2019-01-11T10:58:30.231Z,101055.33
2019-01-11T11:00:56.147Z,101042.83
2019-01-11T11:03:22.007Z,101042.40
2019-01-11T11:05:47.916Z,101044.26
2019-01-11T11:08:13.781Z,101039.89
2019-01-11T11:10:39.699Z,101033.16
2019-01-11T11:13:05.699Z,101028.54
2019-01-11T11:15:31.797Z,101032.07
2019-01-11T11:17:57.699Z,101033.70
2019-01-11T11:20:23.583Z,101025.51
2019-01-11T11:22:49.589Z,101021.59
2019-01-11T11:25:27.990Z,101011.97
2019-01-11T11:27:53.897Z,101012.48
2019-01-11T11:30:19.813Z,101004.61
2019-01-11T11:33:05.555Z,101007.47
2019-01-11T11:35:31.499Z,101004.56
2019-01-11T11:37:57.398Z,101004.08
2019-01-11T11:40:23.270Z,100998.68
2019-01-11T11:45:34.794Z,100992.98
2019-01-11T11:48:00.662Z,100988.38
2019-01-11T11:50:26.576Z,100982.23
2019-01-11T11:52:52.448Z,100992.41
2019-01-11T11:55:18.351Z,100987.41
2019-01-11T11:57:44.239Z,100987.48
2019-01-11T12:00:51.771Z,100980.41
2019-01-11T12:03:17.846Z,100970.95
2019-01-11T12:05:43.721Z,100970.71
2019-01-11T12:08:09.600Z,100967.80
2019-01-11T12:10:35.517Z,100965.17
2019-01-11T12:13:01.422Z,100968.75
2019-01-11T12:15:27.368Z,100960.88
2019-01-11T12:17:53.264Z,100956.33
2019-01-11T12:21:00.827Z,100938.38
2019-01-11T12:23:26.741Z,100945.89
2019-01-11T12:25:52.837Z,100945.06
2019-01-11T12:28:18.715Z,100941.85
2019-01-11T12:30:44.649Z,100936.50
2019-01-11T12:33:10.727Z,100932.25
2019-01-11T12:35:36.612Z,100930.41
2019-01-11T12:38:02.508Z,100922.63
2019-01-11T12:40:28.385Z,100920.80
2019-01-11T12:42:54.398Z,100914.87
2019-01-11T12:45:20.278Z,100925.22
2019-01-11T12:47:46.193Z,100913.70
2019-01-11T12:50:31.957Z,100905.02
2019-01-11T12:52:57.919Z,100916.16
2019-01-11T12:55:23.781Z,100897.59
2019-01-11T12:57:49.743Z,100900.20
2019-01-11T13:03:29.318Z,100877.32
2019-01-11T13:05:55.184Z,100867.91
2019-01-11T13:08:21.099Z,100863.09
2019-01-11T13:10:46.987Z,100867.09
2019-01-11T13:13:12.906Z,100869.62
2019-01-11T13:15:38.861Z,100867.20
2019-01-11T13:18:04.775Z,100858.50
2019-01-11T13:20:30.630Z,100850.82
2019-01-11T13:22:56.622Z,100835.78
2019-01-11T13:25:22.491Z,100831.52
2019-01-11T13:27:48.356Z,100827.09
2019-01-11T13:30:55.892Z,100833.64
2019-01-11T13:33:35.019Z,100828.72
2019-01-11T13:36:00.984Z,100827.70
2019-01-11T13:38:26.858Z,100834.00
2019-01-11T13:40:52.770Z,100831.73
2019-01-11T13:43:18.627Z,100826.27
2019-01-11T13:45:44.644Z,100825.98
2019-01-11T13:48:10.505Z,100826.95
2019-01-11T13:51:18.078Z,100820.61
2019-01-11T13:53:43.993Z,100826.83
2019-01-11T13:56:09.922Z,100833.37
2019-01-11T13:58:35.771Z,100821.56
2019-01-11T14:01:01.681Z,100821.47
2019-01-11T14:03:27.599Z,100815.52
2019-01-11T14:05:53.496Z,100813.86
2019-01-11T14:08:19.417Z,100814.23
2019-01-11T14:10:45.289Z,100818.59
2019-01-11T14:13:11.308Z,100824.32
2019-01-11T14:15:37.187Z,100822.34
2019-01-11T14:18:03.104Z,100818.14
2019-01-11T14:20:29.014Z,100819.45
2019-01-11T14:23:01.869Z,100809.56
2019-01-11T14:25:27.780Z,100820.78
2019-01-11T14:27:53.676Z,100804.81
2019-01-11T14:30:19.588Z,100809.98
2019-01-11T14:32:45.478Z,100815.69
2019-01-11T14:35:11.380Z,100822.83
2019-01-11T14:37:37.298Z,100822.30
2019-01-11T14:43:16.785Z,100804.09
2019-01-11T14:45:42.669Z,100808.45
2019-01-11T14:48:08.600Z,100798.70
2019-01-11T14:50:34.460Z,100803.17
2019-01-11T14:53:00.368Z,100804.41
2019-01-11T14:55:26.259Z,100813.73
2019-01-11T14:57:52.166Z,100811.84
2019-01-11T15:00:59.708Z,100813.39
2019-01-11T15:03:25.650Z,100801.59
2019-01-11T15:05:51.538Z,100805.05
2019-01-11T15:08:17.478Z,100798.95
2019-01-11T15:10:43.355Z,100802.09
2019-01-11T15:13:09.258Z,100800.23
2019-01-11T15:15:35.189Z,100799.07
2019-01-11T15:18:01.044Z,100805.64
2019-01-11T15:20:26.954Z,100801.86
2019-01-11T15:22:52.853Z,100796.27
2019-01-11T15:25:18.755Z,100802.94
2019-01-11T15:27:44.767Z,100794.31
2019-01-11T15:30:52.327Z,100809.52
2019-01-11T15:33:18.231Z,100800.95
2019-01-11T15:35:44.104Z,100810.34
2019-01-11T15:40:43.931Z,100807.09
2019-01-11T15:43:09.816Z,100808.52
2019-01-11T15:45:35.721Z,100812.69
2019-01-11T15:48:01.649Z,100819.86
2019-01-11T15:51:09.177Z,100813.74
2019-01-11T15:53:35.281Z,100816.13
2019-01-11T15:58:32.924Z,100815.90
2019-01-11T16:00:58.798Z,100820.30
2019-01-11T16:03:24.646Z,100823.55
2019-01-11T16:09:33.407Z,100823.68
2019-01-11T16:12:19.254Z,100824.09
2019-01-11T16:15:24.968Z,100827.61
2019-01-11T16:21:01.234Z,100822.80
2019-01-11T16:23:27.144Z,100817.59
2019-01-11T16:25:53.216Z,100820.45
2019-01-11T16:28:19.189Z,100816.12
2019-01-11T16:30:45.106Z,100817.76
2019-01-11T16:33:10.997Z,100816.39
2019-01-11T16:35:36.907Z,100800.77
2019-01-11T16:41:16.699Z,100801.31
2019-01-11T16:43:42.572Z,100807.06
2019-01-11T16:46:08.486Z,100801.17
2019-01-11T16:48:34.406Z,100807.41
2019-01-11T16:51:00.291Z,100807.22
2019-01-11T16:53:26.221Z,100808.91
2019-01-11T16:55:52.099Z,100818.92
2019-01-11T16:58:18.006Z,100815.05
2019-01-11T17:00:43.897Z,100813.36
2019-01-11T17:03:09.793Z,100823.07
2019-01-11T17:05:35.670Z,100832.66
2019-01-11T17:08:01.559Z,100828.22
2019-01-11T17:10:27.444Z,100838.25
2019-01-11T17:12:53.359Z,100835.09
2019-01-11T17:15:19.232Z,100847.19
2019-01-11T17:17:45.140Z,100844.56
2019-01-11T17:20:52.647Z,100853.23
2019-01-11T17:23:18.598Z,100854.09
2019-01-11T17:25:44.457Z,100852.31
2019-01-11T17:28:10.384Z,100852.31
2019-01-11T17:30:36.308Z,100849.26
2019-01-11T17:33:02.179Z,100847.34
2019-01-11T17:35:28.089Z,100839.92
2019-01-11T17:37:53.947Z,100830.17
2019-01-11T17:40:19.863Z,100838.84
2019-01-11T17:42:45.744Z,100841.70
2019-01-11T17:45:11.644Z,100846.41
2019-01-11T17:47:37.548Z,100842.64
2019-01-11T17:50:45.068Z,100846.28
2019-01-11T17:53:10.969Z,100846.35
2019-01-11T17:55:36.888Z,100848.39
2019-01-11T17:58:02.945Z,100849.05
2019-01-11T18:00:28.841Z,100850.57
2019-01-11T18:02:54.732Z,100861.41
2019-01-11T18:06:03.662Z,100852.11
2019-01-11T18:08:30.105Z,100859.84
2019-01-11T18:10:55.985Z,100862.61
2019-01-11T18:13:21.897Z,100870.70
2019-01-11T18:15:47.759Z,100861.22
2019-01-11T18:18:13.677Z,100862.34
2019-01-11T18:20:39.554Z,100860.76
2019-01-11T18:23:07.089Z,100857.25
2019-01-11T18:25:33.255Z,100860.45
2019-01-11T18:27:59.154Z,100855.40
2019-01-11T18:30:25.070Z,100860.14
2019-01-11T18:32:50.970Z,100874.14
2019-01-11T18:35:16.865Z,100863.81
2019-01-11T18:37:42.850Z,100864.02
2019-01-11T18:40:28.618Z,100861.41
2019-01-11T18:42:54.649Z,100872.82
2019-01-11T18:45:20.570Z,100873.32
2019-01-11T18:47:46.458Z,100874.29
2019-01-11T18:50:53.982Z,100884.33
2019-01-11T18:53:19.907Z,100887.58
2019-01-11T18:55:45.858Z,100890.64
2019-01-11T18:58:11.714Z,100875.56
2019-01-11T19:00:57.474Z,100883.97
2019-01-11T19:03:23.444Z,100866.94
2019-01-11T19:05:49.406Z,100868.12
2019-01-11T19:08:15.498Z,100869.66
2019-01-11T19:10:41.396Z,100886.61
2019-01-11T19:13:07.284Z,100871.14
2019-01-11T19:15:33.204Z,100871.47
2019-01-11T19:17:59.074Z,100878.29
2019-01-11T19:21:06.609Z,100880.92
2019-01-11T19:23:32.712Z,100868.66
2019-01-11T19:25:58.595Z,100894.37
2019-01-11T19:28:24.540Z,100901.19
2019-01-11T19:30:50.418Z,100882.13
2019-01-11T19:33:16.332Z,100885.34
2019-01-11T19:35:42.285Z,100881.40
2019-01-11T19:38:08.265Z,100892.23
2019-01-11T19:40:34.125Z,100893.86
2019-01-11T19:43:00.042Z,100895.56
2019-01-11T19:45:25.904Z,100907.50
2019-01-11T19:47:51.778Z,100902.30
2019-01-11T19:50:59.301Z,100900.41
2019-01-11T19:53:27.727Z,100906.44
2019-01-11T19:55:58.761Z,100897.25
2019-01-11T19:58:20.956Z,100897.98
2019-01-11T20:00:46.920Z,100909.80
2019-01-11T20:03:12.833Z,100921.98
2019-01-11T20:05:38.758Z,100901.52
2019-01-11T20:08:04.625Z,100897.06
2019-01-11T20:10:30.544Z,100911.84
2019-01-11T20:12:56.432Z,100907.38
2019-01-11T20:15:22.427Z,100907.95
2019-01-11T20:17:48.355Z,100918.38
2019-01-11T20:20:14.356Z,100906.03
2019-01-11T20:22:40.233Z,100900.72
2019-01-11T20:25:47.764Z,100910.81
2019-01-11T20:28:13.668Z,100902.68
2019-01-11T20:30:59.462Z,100899.31
2019-01-11T20:33:25.378Z,100906.88
2019-01-11T20:35:51.286Z,100895.02
2019-01-11T20:38:17.194Z,100904.14
2019-01-11T20:40:43.088Z,100918.63
2019-01-11T20:45:42.720Z,100909.48
2019-01-11T20:48:08.623Z,100907.73
2019-01-11T20:50:34.506Z,100915.91
2019-01-11T20:53:00.423Z,100912.86
2019-01-11T20:55:26.292Z,100921.30
2019-01-11T20:57:52.226Z,100918.80
2019-01-11T21:00:59.723Z,100926.95
2019-01-11T21:03:25.665Z,100922.10
2019-01-11T21:05:51.550Z,100914.73
2019-01-11T21:08:17.476Z,100922.88
2019-01-11T21:10:43.358Z,100929.41
2019-01-11T21:13:09.273Z,100924.01
2019-01-11T21:15:35.171Z,100923.58
2019-01-11T21:18:01.051Z,100930.39
2019-01-11T21:20:26.963Z,100933.80
2019-01-11T21:22:52.873Z,100931.81
2019-01-11T21:28:32.206Z,100940.38
2019-01-11T21:30:58.081Z,100940.10
2019-01-11T21:33:23.979Z,100939.82
2019-01-11T21:35:49.885Z,100940.96
2019-01-11T21:38:15.787Z,100929.79
2019-01-11T21:40:41.668Z,100931.42
2019-01-11T21:43:07.589Z,100939.82
2019-01-11T21:45:33.437Z,100931.06
2019-01-11T21:47:59.350Z,100921.72
2019-01-11T21:50:25.218Z,100920.42
2019-01-11T21:52:51.132Z,100931.47
2019-01-11T21:55:17.005Z,100931.81
2019-01-11T21:58:24.542Z,100934.15
2019-01-11T22:00:50.648Z,100938.38
2019-01-11T22:03:16.507Z,100935.97
2019-01-11T22:05:42.373Z,100948.42
2019-01-11T22:08:08.278Z,100946.89
2019-01-11T22:10:34.172Z,100943.50
2019-01-11T22:13:00.070Z,100950.57
2019-01-11T22:15:25.958Z,100947.81
2019-01-11T22:17:51.864Z,100943.41
2019-01-11T22:20:17.730Z,100940.45
2019-01-11T22:22:43.656Z,100949.98
2019-01-11T22:25:51.191Z,100952.45
2019-01-11T22:28:17.173Z,100945.22
2019-01-11T22:30:43.421Z,100952.97
2019-01-11T22:33:10.913Z,100954.66
2019-01-11T22:35:36.839Z,100979.78
2019-01-11T22:38:02.773Z,100956.53
2019-01-11T22:40:28.714Z,100959.28
2019-01-11T22:43:36.284Z,100959.63
2019-01-11T22:46:02.190Z,100945.65
2019-01-11T22:48:28.120Z,100944.19
2019-01-11T22:50:54.024Z,100948.23
2019-01-11T22:53:19.898Z,100940.08
2019-01-11T22:55:45.822Z,100955.59
2019-01-11T22:58:11.704Z,100950.45
2019-01-11T23:01:19.229Z,100950.38
2019-01-11T23:03:45.159Z,100949.59
2019-01-11T23:06:52.689Z,100952.73
2019-01-11T23:09:18.678Z,100951.74
2019-01-11T23:12:24.335Z,100942.55
2019-01-11T23:14:50.297Z,100946.19
2019-01-11T23:17:57.788Z,100945.50
2019-01-11T23:20:23.743Z,100948.97
2019-01-11T23:22:49.608Z,100944.28
2019-01-11T23:25:15.516Z,100952.45
2019-01-11T23:27:41.426Z,100949.46
2019-01-11T23:33:21.516Z,100948.69
2019-01-11T23:35:47.425Z,100954.70
2019-01-11T23:38:13.338Z,100948.86
2019-01-11T23:40:39.206Z,100956.59
2019-01-11T23:43:05.122Z,100954.69
2019-01-11T23:45:31.008Z,100965.61
2019-01-11T23:47:56.916Z,100951.84
2019-01-11T23:50:22.816Z,100947.42
2019-01-11T23:52:48.707Z,100944.39
2019-01-11T23:55:14.632Z,100952.73
2019-01-11T23:57:40.499Z,100947.84
